createdAt,value
2019-02-10T10:25:58.860Z,17.00
2019-02-10T10:28:32.301Z,16.73
2019-02-10T10:31:05.878Z,14.40
2019-02-10T10:33:39.349Z,15.90
2019-02-10T10:36:12.789Z,21.53
2019-02-10T10:38:46.235Z,15.70
2019-02-10T10:41:24.088Z,19.43
2019-02-10T10:43:57.534Z,18.30
2019-02-10T10:46:30.965Z,20.87
2019-02-10T10:49:04.429Z,20.93
2019-02-10T10:51:39.297Z,17.57
2019-02-10T10:54:12.951Z,21.97
2019-02-10T10:56:46.522Z,20.57
2019-02-10T10:59:19.999Z,20.30
2019-02-10T11:01:53.615Z,20.93
2019-02-10T11:04:28.001Z,18.10
2019-02-10T11:07:03.079Z,18.27
2019-02-10T11:09:37.152Z,18.07
2019-02-10T11:12:10.638Z,17.23
2019-02-10T11:14:44.248Z,17.70
2019-02-10T11:17:17.929Z,17.90
2019-02-10T11:19:51.426Z,19.53
2019-02-10T11:22:25.366Z,17.97
2019-02-10T11:24:59.004Z,18.67
2019-02-10T11:27:32.556Z,15.60
2019-02-10T11:30:15.682Z,15.67
2019-02-10T11:32:49.092Z,15.93
2019-02-10T11:35:22.576Z,14.37
2019-02-10T11:37:56.279Z,17.23
2019-02-10T11:40:29.780Z,16.50
2019-02-10T11:43:03.271Z,22.50
2019-02-10T11:45:36.777Z,16.03
2019-02-10T11:48:10.302Z,16.83
2019-02-10T11:50:46.393Z,18.93
2019-02-10T11:53:19.937Z,17.73
2019-02-10T11:55:53.436Z,15.07
2019-02-10T11:58:26.953Z,15.20
2019-02-10T12:01:03.404Z,15.73
2019-02-10T12:03:37.035Z,16.67
2019-02-10T12:06:10.634Z,20.10
2019-02-10T12:08:44.209Z,17.67
2019-02-10T12:11:18.251Z,15.97
2019-02-10T12:13:52.578Z,16.57
2019-02-10T12:16:26.130Z,16.40
2019-02-10T12:19:01.251Z,14.57
2019-02-10T12:21:34.665Z,18.07
2019-02-10T12:24:08.147Z,15.23
2019-02-10T12:26:41.627Z,17.80
2019-02-10T12:29:15.057Z,14.43
2019-02-10T12:31:48.499Z,15.03
2019-02-10T12:34:21.923Z,21.07
2019-02-10T12:36:55.425Z,17.07
2019-02-10T12:39:28.856Z,22.10
2019-02-10T12:42:02.316Z,18.77
2019-02-10T12:44:35.750Z,22.33
2019-02-10T12:47:09.251Z,23.97
2019-02-10T12:49:44.140Z,21.13
2019-02-10T12:52:17.727Z,19.33
2019-02-10T12:54:51.156Z,19.33
2019-02-10T12:57:24.626Z,18.03
2019-02-10T12:59:58.111Z,18.90
2019-02-10T13:02:31.543Z,21.10
2019-02-10T13:05:06.347Z,20.90
2019-02-10T13:07:39.782Z,22.37
2019-02-10T13:10:17.490Z,22.53
2019-02-10T13:12:49.577Z,22.57
2019-02-10T13:15:23.039Z,19.57
2019-02-10T13:17:58.103Z,23.03
2019-02-10T13:20:31.568Z,22.13
2019-02-10T13:23:05.020Z,23.73
2019-02-10T13:25:38.492Z,20.37
2019-02-10T13:28:11.949Z,23.73
2019-02-10T13:30:45.411Z,27.17
2019-02-10T13:33:18.836Z,25.83
2019-02-10T13:35:52.325Z,30.67
2019-02-10T13:38:25.744Z,31.03
2019-02-10T13:40:59.235Z,28.80
2019-02-10T13:43:33.753Z,26.60
2019-02-10T13:46:07.331Z,31.17
2019-02-10T13:48:40.796Z,31.83
2019-02-10T13:51:15.547Z,25.70
2019-02-10T13:53:49.111Z,28.80
2019-02-10T13:56:22.615Z,27.50
2019-02-10T13:58:56.079Z,28.87
2019-02-10T14:01:29.573Z,28.87
2019-02-10T14:04:03.035Z,31.53
2019-02-10T14:06:36.482Z,30.00
2019-02-10T14:09:09.918Z,33.07
2019-02-10T14:11:43.377Z,34.23
2019-02-10T14:14:16.821Z,36.37
2019-02-10T14:16:50.267Z,34.77
2019-02-10T14:19:23.754Z,36.80
2019-02-10T14:21:57.156Z,33.67
2019-02-10T14:24:30.632Z,33.07
2019-02-10T14:27:04.167Z,34.70
2019-02-10T14:29:37.635Z,36.63
2019-02-10T14:32:11.238Z,37.70
2019-02-10T14:34:44.696Z,42.10
2019-02-10T14:37:18.136Z,39.57
2019-02-10T14:39:51.593Z,37.13
2019-02-10T14:42:25.025Z,41.87
2019-02-10T14:44:58.475Z,37.63
2019-02-10T14:47:31.973Z,40.13
2019-02-10T14:50:08.752Z,39.30
2019-02-10T14:52:43.082Z,40.53
2019-02-10T14:55:20.076Z,36.80
2019-02-10T14:57:53.550Z,39.97
2019-02-10T15:00:27.260Z,40.13
2019-02-10T15:03:00.822Z,41.33
